Queen Isabella — A8IE2 — position and weather

sailwx.info

Track history (hours):
 
Tides and Currents Weather Stations Pressure Air Temp Water Temp Dewpoint Dewpoint Depression Visibility Wind Speed Wind Dir Waves Ship Positions

Queen Isabella

Last reported at 2017-Mar-23 22:20 UTC. Time now 2017-Mar-24 14:01 UTC.
Position N 36°00' W 005°10'.

Length 131 m; draft 6.6 m.

Type: Tanker. MMSI: 636090959.

Date/timePositionNaut miles runAvg speedWind from/ knotsBaromVisibWave heightAir tempDewpointWater temp
2017-Mar-23 22:20N 36°00' W 005°10'1114.2
2017-Mar-23 21:33N 35°58' W 005°23'1514.4
2017-Mar-23 20:32N 35°56' W 005°41'  
2017-Mar-21 07:23N 35°58' W 005°39'910.5
2017-Mar-21 06:34N 35°59' W 005°28'9 9.3
2017-Mar-21 05:32N 36°02' W 005°17'9 9.4
2017-Mar-21 04:33N 36°04' W 005°06'21611.1
2017-Mar-20 09:04N 37°20' W 000°53'713.0
2017-Mar-20 08:33N 37°25' W 000°47'1312.7
2017-Mar-20 07:33N 37°33' W 000°35'1212.6
2017-Mar-20 06:33N 37°44' W 000°26'1312.4
2017-Mar-20 05:32N 37°54' W 000°17'2512.5
2017-Mar-20 03:33N 38°15' E 000°00'1212.4
2017-Mar-20 02:34N 38°26' E 000°08'9211.3
2017-Mar-19 18:25N 39°57' E 000°01'0 0.2
2017-Mar-19 16:29N 39°57' E 000°01'0 0.0
2017-Mar-18 03:07N 39°57' E 000°01'18112.3
2017-Mar-17 12:25N 36°57' W 000°00'  
Track history (hours):
 
Tides and Currents Weather Stations Pressure Air Temp Water Temp Dewpoint Dewpoint Depression Visibility Wind Speed Wind Dir Waves Ship Positions

Queen Isabella

Last reported at 2017-Mar-23 22:20 UTC. Time now 2017-Mar-24 14:01 UTC.
Position N 36°00' W 005°10'.

Length 131 m; draft 6.6 m.

Type: Tanker. MMSI: 636090959.

Date/timePositionNaut miles runAvg speedWind from/ knotsBaromVisibWave heightAir tempDewpointWater temp
2017-Mar-23 22:20N 36°00' W 005°10'1114.2
2017-Mar-23 21:33N 35°58' W 005°23'1514.4
2017-Mar-23 20:32N 35°56' W 005°41'  
2017-Mar-21 07:23N 35°58' W 005°39'910.5
2017-Mar-21 06:34N 35°59' W 005°28'9 9.3
2017-Mar-21 05:32N 36°02' W 005°17'9 9.4
2017-Mar-21 04:33N 36°04' W 005°06'21611.1
2017-Mar-20 09:04N 37°20' W 000°53'713.0
2017-Mar-20 08:33N 37°25' W 000°47'1312.7
2017-Mar-20 07:33N 37°33' W 000°35'1212.6
2017-Mar-20 06:33N 37°44' W 000°26'1312.4
2017-Mar-20 05:32N 37°54' W 000°17'2512.5
2017-Mar-20 03:33N 38°15' E 000°00'1212.4
2017-Mar-20 02:34N 38°26' E 000°08'9211.3
2017-Mar-19 18:25N 39°57' E 000°01'0 0.2
2017-Mar-19 16:29N 39°57' E 000°01'0 0.0
2017-Mar-18 03:07N 39°57' E 000°01'18112.3
2017-Mar-17 12:25N 36°57' W 000°00'  

Dump ship's entire track history